createdAt,value
2023-05-15T00:00:04.483Z,974.28
2023-05-15T00:01:04.595Z,974.31
2023-05-15T00:02:04.582Z,974.20
2023-05-15T00:03:05.039Z,974.37
2023-05-15T00:04:04.868Z,974.23
2023-05-15T00:05:04.843Z,974.14
2023-05-15T00:06:04.880Z,974.37
2023-05-15T00:08:04.581Z,974.29
2023-05-15T00:09:04.545Z,974.29
2023-05-15T00:10:04.925Z,974.15
2023-05-15T00:11:04.581Z,974.24
2023-05-15T00:12:04.545Z,974.44
2023-05-15T00:13:04.544Z,974.15
2023-05-15T00:14:05.056Z,974.27
2023-05-15T00:15:05.077Z,974.21
2023-05-15T00:16:05.118Z,974.33
2023-05-15T00:17:04.591Z,974.10
2023-05-15T00:18:05.195Z,974.22
2023-05-15T00:19:04.858Z,974.13
2023-05-15T00:21:04.601Z,974.10
2023-05-15T00:22:04.533Z,974.25
2023-05-15T00:23:05.048Z,974.22
2023-05-15T00:24:05.003Z,974.11
2023-05-15T00:25:04.594Z,974.05
2023-05-15T00:26:04.582Z,974.22
2023-05-15T00:28:04.533Z,974.14
2023-05-15T00:30:04.603Z,974.25
2023-05-15T00:31:05.134Z,974.34
2023-05-15T00:32:05.053Z,974.08
2023-05-15T00:33:05.176Z,974.06
2023-05-15T00:34:04.909Z,974.20
2023-05-15T00:36:04.607Z,974.20
2023-05-15T00:37:05.106Z,974.29
2023-05-15T00:38:04.600Z,974.23
2023-05-15T00:39:04.523Z,974.09
2023-05-15T00:40:04.581Z,974.12
2023-05-15T00:41:05.082Z,974.12
2023-05-15T00:43:04.671Z,974.15
2023-05-15T00:45:04.929Z,974.18
2023-05-15T00:46:04.646Z,974.13
2023-05-15T00:47:04.651Z,974.21
2023-05-15T00:48:04.846Z,974.04
2023-05-15T00:49:04.783Z,973.99
2023-05-15T00:50:04.616Z,974.13
2023-05-15T00:51:04.586Z,974.19
2023-05-15T00:52:04.593Z,974.04
2023-05-15T00:53:04.626Z,973.99
2023-05-15T00:54:04.828Z,974.04
2023-05-15T00:55:04.625Z,974.02
2023-05-15T00:56:05.095Z,974.05
2023-05-15T00:57:05.106Z,974.07
2023-05-15T00:59:04.595Z,973.96
2023-05-15T01:01:05.709Z,974.05
2023-05-15T01:02:05.134Z,973.93
2023-05-15T01:04:04.931Z,973.94
2023-05-15T01:05:04.631Z,974.11
2023-05-15T01:06:03.032Z,973.96
2023-05-15T01:07:05.140Z,973.94
2023-05-15T01:08:04.638Z,973.99
2023-05-15T01:09:04.640Z,973.99
2023-05-15T01:10:04.633Z,973.88
2023-05-15T01:11:04.950Z,973.94
2023-05-15T01:13:02.949Z,973.88
2023-05-15T01:14:04.832Z,973.86
2023-05-15T01:15:04.646Z,973.80
2023-05-15T01:16:05.002Z,973.91
2023-05-15T01:17:04.930Z,973.94
2023-05-15T01:18:04.675Z,973.88
2023-05-15T01:19:04.947Z,973.74
2023-05-15T01:20:05.195Z,973.66
2023-05-15T01:21:04.860Z,973.77
2023-05-15T01:22:04.653Z,973.77
2023-05-15T01:23:04.664Z,973.72
2023-05-15T01:24:04.650Z,973.63
2023-05-15T01:25:04.660Z,973.83
2023-05-15T01:26:04.658Z,973.66
2023-05-15T01:28:04.655Z,973.72
2023-05-15T01:29:04.664Z,973.75
2023-05-15T01:31:04.600Z,973.72
2023-05-15T01:33:04.881Z,973.66
2023-05-15T01:34:04.843Z,973.72
2023-05-15T01:35:04.589Z,973.66
2023-05-15T01:36:04.654Z,973.63
2023-05-15T01:37:04.625Z,973.72
2023-05-15T01:38:04.670Z,973.63
2023-05-15T01:39:04.599Z,973.60
2023-05-15T01:41:04.814Z,973.58
2023-05-15T01:42:04.659Z,973.63
2023-05-15T01:43:04.632Z,973.53
2023-05-15T01:44:04.686Z,973.47
2023-05-15T01:45:04.672Z,973.53
2023-05-15T01:46:04.603Z,973.50
2023-05-15T01:47:04.876Z,973.50
2023-05-15T01:48:04.663Z,973.45
2023-05-15T01:49:04.676Z,973.45
2023-05-15T01:50:04.672Z,973.39
2023-05-15T01:51:04.576Z,973.50
2023-05-15T01:52:04.649Z,973.42
2023-05-15T01:53:04.591Z,973.45
2023-05-15T01:54:04.605Z,973.39
2023-05-15T01:55:04.635Z,973.50
2023-05-15T01:56:04.644Z,973.55
2023-05-15T01:57:05.114Z,973.39
2023-05-15T01:58:05.146Z,973.39
2023-05-15T01:59:04.675Z,973.51
2023-05-15T02:00:04.582Z,973.48
2023-05-15T02:01:05.196Z,973.45
2023-05-15T02:02:05.308Z,973.48
2023-05-15T02:03:05.199Z,973.46
2023-05-15T02:04:05.267Z,973.34
2023-05-15T02:05:04.989Z,973.32
2023-05-15T02:08:04.686Z,973.43
2023-05-15T02:09:04.941Z,973.32
2023-05-15T02:10:04.889Z,973.32
2023-05-15T02:11:04.694Z,973.23
2023-05-15T02:12:05.161Z,973.43
2023-05-15T02:13:05.194Z,973.29
2023-05-15T02:15:04.734Z,973.41
2023-05-15T02:16:05.288Z,973.18
2023-05-15T02:17:04.928Z,973.21
2023-05-15T02:19:05.215Z,973.44
2023-05-15T02:20:05.199Z,973.24
2023-05-15T02:21:04.668Z,973.21
2023-05-15T02:22:04.662Z,973.21
2023-05-15T02:23:04.666Z,973.32
2023-05-15T02:24:04.671Z,973.27
2023-05-15T02:25:04.617Z,973.15
2023-05-15T02:26:04.843Z,973.18
2023-05-15T02:27:04.720Z,973.27
2023-05-15T02:28:04.892Z,973.27
2023-05-15T02:29:04.710Z,973.16
2023-05-15T02:30:04.732Z,973.10
2023-05-15T02:31:04.730Z,973.33
2023-05-15T02:32:04.767Z,973.24
2023-05-15T02:33:04.894Z,973.24
2023-05-15T02:34:03.036Z,973.33
2023-05-15T02:35:04.788Z,973.19
2023-05-15T02:36:04.628Z,973.21
2023-05-15T02:37:04.729Z,973.16
2023-05-15T02:40:02.943Z,973.27
2023-05-15T02:41:02.970Z,973.19
2023-05-15T02:42:03.031Z,973.16
2023-05-15T02:43:02.999Z,973.01
2023-05-15T02:44:03.111Z,973.21
2023-05-15T02:45:05.094Z,973.04
2023-05-15T02:46:04.750Z,972.96
2023-05-15T02:47:04.991Z,973.07
2023-05-15T02:48:04.756Z,973.13
2023-05-15T02:50:04.734Z,973.01
2023-05-15T02:51:04.740Z,973.15
2023-05-15T02:52:04.736Z,972.96
2023-05-15T02:53:04.735Z,973.04
2023-05-15T02:54:04.739Z,972.98
2023-05-15T02:55:04.918Z,973.07
2023-05-15T02:57:04.900Z,972.98
2023-05-15T02:58:04.716Z,973.04
2023-05-15T02:59:04.882Z,972.90
2023-05-15T03:00:04.927Z,973.04
2023-05-15T03:01:04.861Z,972.92
2023-05-15T03:02:04.923Z,973.04
2023-05-15T03:03:04.893Z,972.81
2023-05-15T03:04:04.937Z,972.87
2023-05-15T03:05:04.953Z,973.01
2023-05-15T03:06:04.979Z,972.87
2023-05-15T03:07:04.756Z,972.95
2023-05-15T03:08:04.742Z,972.92
2023-05-15T03:09:05.199Z,972.89
2023-05-15T03:10:04.778Z,972.92
2023-05-15T03:11:05.403Z,972.87
2023-05-15T03:12:04.743Z,972.87
2023-05-15T03:13:04.911Z,972.78
2023-05-15T03:14:04.748Z,972.81
2023-05-15T03:15:04.716Z,972.84
2023-05-15T03:16:04.743Z,972.89
2023-05-15T03:17:04.760Z,972.78
2023-05-15T03:18:04.956Z,972.87
2023-05-15T03:19:05.308Z,972.78
2023-05-15T03:21:03.040Z,972.92
2023-05-15T03:22:05.124Z,972.95
2023-05-15T03:23:04.748Z,972.98
2023-05-15T03:24:04.761Z,972.92
2023-05-15T03:25:04.712Z,972.81
2023-05-15T03:26:04.954Z,972.70
2023-05-15T03:27:02.937Z,972.95
2023-05-15T03:28:02.917Z,972.81
2023-05-15T03:29:03.017Z,972.87
2023-05-15T03:30:02.982Z,972.87
2023-05-15T03:31:03.132Z,972.84
2023-05-15T03:32:04.678Z,972.81
2023-05-15T03:33:04.786Z,972.76
2023-05-15T03:35:04.838Z,972.79
2023-05-15T03:36:04.752Z,972.87
2023-05-15T03:37:04.804Z,972.93
2023-05-15T03:38:04.760Z,972.73
2023-05-15T03:39:04.955Z,972.99
2023-05-15T03:40:04.736Z,972.93
2023-05-15T03:41:04.765Z,972.96
2023-05-15T03:42:04.965Z,972.93
2023-05-15T03:43:04.776Z,972.96
2023-05-15T03:44:04.924Z,972.79
2023-05-15T03:46:04.798Z,972.88
2023-05-15T03:47:04.757Z,972.96
2023-05-15T03:48:04.738Z,972.73
2023-05-15T03:49:04.953Z,972.82
2023-05-15T03:50:04.743Z,972.74
2023-05-15T03:51:04.904Z,972.82
2023-05-15T03:52:05.263Z,972.77
2023-05-15T03:54:04.774Z,972.59
2023-05-15T03:56:03.014Z,972.79
2023-05-15T03:57:05.265Z,972.79
2023-05-15T03:59:04.777Z,972.77
2023-05-15T04:00:04.692Z,972.85
2023-05-15T04:01:04.751Z,972.88
2023-05-15T04:02:05.959Z,972.79
2023-05-15T04:03:04.832Z,972.71
2023-05-15T04:04:04.832Z,972.62
2023-05-15T04:05:05.006Z,972.79
2023-05-15T04:06:05.050Z,972.74
2023-05-15T04:07:04.806Z,972.88
2023-05-15T04:09:04.804Z,972.79
2023-05-15T04:10:04.835Z,972.74
2023-05-15T04:12:04.816Z,972.82
2023-05-15T04:13:03.095Z,972.79
2023-05-15T04:14:05.330Z,972.71
2023-05-15T04:16:05.189Z,972.74
2023-05-15T04:17:05.041Z,972.76
2023-05-15T04:19:05.007Z,972.88
2023-05-15T04:21:03.055Z,972.94
2023-05-15T04:22:03.028Z,972.82
2023-05-15T04:23:03.158Z,972.76
2023-05-15T04:24:03.097Z,972.76
2023-05-15T04:25:05.100Z,972.79
2023-05-15T04:26:05.140Z,972.76
2023-05-15T04:27:04.821Z,972.76
2023-05-15T04:28:03.100Z,972.71
2023-05-15T04:29:05.078Z,972.70
2023-05-15T04:30:05.001Z,972.82
2023-05-15T04:31:04.807Z,972.59
2023-05-15T04:32:05.053Z,972.70
2023-05-15T04:33:05.013Z,972.62
2023-05-15T04:34:04.968Z,972.65
2023-05-15T04:36:05.012Z,972.76
2023-05-15T04:37:04.828Z,972.87
2023-05-15T04:38:04.825Z,972.67
2023-05-15T04:40:05.007Z,972.59
2023-05-15T04:41:05.104Z,972.59
2023-05-15T04:42:04.864Z,972.82
2023-05-15T04:43:05.008Z,972.70
2023-05-15T04:44:02.999Z,972.64
2023-05-15T04:45:02.951Z,972.58
2023-05-15T04:46:05.059Z,972.70
2023-05-15T04:47:05.006Z,972.56
2023-05-15T04:49:03.161Z,972.72
2023-05-15T04:50:03.193Z,972.55
2023-05-15T04:51:03.036Z,972.61
2023-05-15T04:52:03.061Z,972.63
2023-05-15T04:53:02.985Z,972.75
2023-05-15T04:54:02.989Z,972.66
2023-05-15T04:55:03.116Z,972.63
2023-05-15T04:56:03.199Z,972.69
2023-05-15T04:57:05.213Z,972.57
2023-05-15T04:58:04.814Z,972.66
2023-05-15T04:59:05.323Z,972.68
2023-05-15T05:01:05.063Z,972.68
2023-05-15T05:02:05.050Z,972.82
2023-05-15T05:04:05.016Z,972.68
2023-05-15T05:05:05.070Z,972.71
2023-05-15T05:06:04.861Z,972.65
2023-05-15T05:07:05.035Z,972.65
2023-05-15T05:08:05.106Z,972.59
2023-05-15T05:09:04.870Z,972.62
2023-05-15T05:11:04.858Z,972.73
2023-05-15T05:12:04.865Z,972.67
2023-05-15T05:13:03.108Z,972.61
2023-05-15T05:14:02.973Z,972.64
2023-05-15T05:15:03.030Z,972.73
2023-05-15T05:16:03.163Z,972.75
2023-05-15T05:17:03.106Z,972.75
2023-05-15T05:18:04.843Z,972.72
2023-05-15T05:19:05.070Z,972.72
2023-05-15T05:20:05.202Z,972.78
2023-05-15T05:21:04.807Z,972.92
2023-05-15T05:22:05.534Z,972.81
2023-05-15T05:23:05.180Z,972.72
2023-05-15T05:24:04.930Z,972.74
2023-05-15T05:25:02.967Z,972.74
2023-05-15T05:26:06.540Z,972.83
2023-05-15T05:27:05.222Z,972.71
2023-05-15T05:28:05.184Z,972.65
2023-05-15T05:29:04.877Z,972.73
2023-05-15T05:30:04.888Z,972.70
2023-05-15T05:31:03.202Z,972.67
2023-05-15T05:32:04.824Z,972.58
2023-05-15T05:34:05.152Z,972.78
2023-05-15T05:35:05.063Z,972.61
2023-05-15T05:36:05.147Z,972.66
2023-05-15T05:37:05.048Z,972.63
2023-05-15T05:39:03.171Z,972.63
2023-05-15T05:40:03.222Z,972.82
2023-05-15T05:41:03.215Z,972.85
2023-05-15T05:42:03.288Z,972.70
2023-05-15T05:43:05.245Z,972.87
2023-05-15T05:44:04.908Z,972.75
2023-05-15T05:45:05.178Z,972.72
2023-05-15T05:46:04.948Z,972.69
2023-05-15T05:47:05.124Z,972.68
2023-05-15T05:48:05.289Z,972.70
2023-05-15T05:49:05.045Z,972.78
2023-05-15T05:50:05.040Z,972.63
2023-05-15T05:51:04.934Z,972.65
2023-05-15T05:52:05.083Z,972.76
2023-05-15T05:54:05.383Z,972.70
2023-05-15T05:56:17.110Z,972.57
2023-05-15T05:57:02.932Z,972.59
2023-05-15T05:58:08.642Z,972.52
2023-05-15T05:59:05.087Z,972.62
2023-05-15T06:00:04.972Z,972.55
2023-05-15T06:02:12.599Z,972.56
2023-05-15T06:03:05.180Z,972.48
2023-05-15T06:04:05.442Z,972.57
2023-05-15T06:05:05.312Z,972.56
2023-05-15T06:06:05.118Z,972.55
2023-05-15T06:08:04.821Z,972.73
2023-05-15T06:09:19.606Z,972.73
2023-05-15T06:10:05.329Z,972.77
2023-05-15T06:11:03.301Z,972.79
2023-05-15T06:12:05.298Z,972.78
2023-05-15T06:14:13.632Z,973.00
2023-05-15T06:15:05.018Z,972.96
2023-05-15T06:16:05.157Z,973.10
2023-05-15T06:17:06.007Z,973.09
2023-05-15T06:18:12.935Z,973.17
2023-05-15T06:20:05.149Z,973.19
2023-05-15T06:22:20.422Z,973.12
2023-05-15T06:23:03.288Z,973.28
2023-05-15T06:24:05.438Z,973.34
2023-05-15T06:27:04.941Z,973.49
2023-05-15T06:29:03.315Z,973.70
2023-05-15T06:30:04.965Z,973.67
2023-05-15T06:31:05.206Z,973.69
2023-05-15T06:33:03.357Z,973.89
2023-05-15T06:34:05.306Z,973.83
2023-05-15T06:35:05.256Z,973.80
2023-05-15T06:36:05.210Z,973.94
2023-05-15T06:37:05.165Z,973.96
2023-05-15T06:39:04.935Z,973.95
2023-05-15T06:41:03.076Z,973.94
2023-05-15T06:42:03.082Z,974.00
2023-05-15T06:43:05.213Z,973.99
2023-05-15T06:45:04.964Z,974.05
2023-05-15T06:46:05.181Z,973.96
2023-05-15T06:47:05.455Z,974.07
2023-05-15T06:48:05.029Z,974.18
2023-05-15T06:49:04.865Z,974.03
2023-05-15T06:50:05.668Z,974.06
2023-05-15T06:51:05.265Z,974.00
2023-05-15T06:52:05.035Z,974.14
2023-05-15T06:53:04.969Z,974.05
2023-05-15T06:54:04.970Z,974.23
2023-05-15T06:55:04.959Z,974.17
2023-05-15T06:56:05.202Z,974.17
2023-05-15T06:57:05.184Z,974.17
2023-05-15T06:58:05.674Z,974.05
2023-05-15T06:59:03.105Z,974.11
2023-05-15T07:00:03.146Z,974.17
2023-05-15T07:01:03.126Z,974.20
2023-05-15T07:02:04.929Z,974.28
2023-05-15T07:03:05.337Z,974.14
2023-05-15T07:04:05.755Z,974.28
2023-05-15T07:05:03.186Z,974.14
2023-05-15T07:06:05.064Z,974.16
2023-05-15T07:07:05.187Z,974.25
2023-05-15T07:08:05.185Z,974.07
2023-05-15T07:11:05.516Z,974.30
2023-05-15T07:13:05.172Z,974.12
2023-05-15T07:15:03.123Z,974.20
2023-05-15T07:16:03.281Z,974.20
2023-05-15T07:17:05.573Z,974.11
2023-05-15T07:18:05.536Z,974.23
2023-05-15T07:20:04.972Z,974.17
2023-05-15T07:21:05.268Z,974.23
2023-05-15T07:23:03.368Z,974.29
2023-05-15T07:24:04.900Z,974.23
2023-05-15T07:25:05.216Z,974.21
2023-05-15T07:27:04.985Z,974.21
2023-05-15T07:28:05.216Z,974.12
2023-05-15T07:30:05.040Z,974.26
2023-05-15T07:31:05.238Z,974.14
2023-05-15T07:32:05.285Z,974.14
2023-05-15T07:34:03.069Z,974.14
2023-05-15T07:35:03.137Z,974.11
2023-05-15T07:36:03.062Z,974.04
2023-05-15T07:37:03.142Z,974.13
2023-05-15T07:38:03.103Z,974.13
2023-05-15T07:39:05.194Z,973.98
2023-05-15T07:40:05.021Z,974.07
2023-05-15T07:41:05.019Z,974.18
2023-05-15T07:42:05.209Z,974.06
2023-05-15T07:44:04.910Z,973.91
2023-05-15T07:45:05.195Z,974.00
2023-05-15T07:46:05.330Z,974.08
2023-05-15T07:47:05.248Z,974.14
2023-05-15T07:48:04.994Z,974.14
2023-05-15T07:49:05.249Z,974.05
2023-05-15T07:50:05.196Z,974.05
2023-05-15T07:51:05.188Z,974.10
2023-05-15T07:52:05.168Z,973.98
2023-05-15T07:53:04.960Z,973.95
2023-05-15T07:54:04.925Z,974.01
2023-05-15T07:55:05.054Z,974.01
2023-05-15T07:56:05.151Z,974.12
2023-05-15T07:57:05.018Z,974.12
2023-05-15T07:58:05.011Z,974.18
2023-05-15T07:59:05.176Z,974.06
2023-05-15T08:01:03.177Z,973.94
2023-05-15T08:02:03.371Z,974.12
2023-05-15T08:04:05.147Z,974.09
2023-05-15T08:05:05.331Z,974.09
2023-05-15T08:06:05.022Z,974.12
2023-05-15T08:08:05.015Z,974.00
2023-05-15T08:09:05.021Z,974.03
2023-05-15T08:11:05.073Z,974.06
2023-05-15T08:12:05.211Z,973.91
2023-05-15T08:13:05.223Z,973.94
2023-05-15T08:15:05.350Z,973.99
2023-05-15T08:16:05.259Z,974.08
2023-05-15T08:18:03.378Z,973.96
2023-05-15T08:19:05.272Z,973.99
2023-05-15T08:21:05.223Z,973.98
2023-05-15T08:23:03.175Z,973.95
2023-05-15T08:24:02.982Z,973.86
2023-05-15T08:25:02.972Z,973.92
2023-05-15T08:26:03.009Z,973.90
2023-05-15T08:27:03.054Z,973.96
2023-05-15T08:28:03.064Z,973.78
2023-05-15T08:29:03.196Z,973.87
2023-05-15T08:30:03.130Z,973.90
2023-05-15T08:31:03.247Z,973.87
2023-05-15T08:32:03.357Z,973.84
2023-05-15T08:33:03.429Z,973.93
2023-05-15T08:34:04.940Z,973.72
2023-05-15T08:36:05.248Z,973.77
2023-05-15T08:37:05.369Z,973.77
2023-05-15T08:39:05.044Z,973.74
2023-05-15T08:41:03.091Z,973.65
2023-05-15T08:42:03.237Z,973.68
2023-05-15T08:43:03.311Z,973.82
2023-05-15T08:44:03.218Z,973.70
2023-05-15T08:45:03.122Z,973.91
2023-05-15T08:46:03.169Z,973.79
2023-05-15T08:47:03.452Z,973.67
2023-05-15T08:48:03.240Z,973.61
2023-05-15T08:49:03.171Z,973.67
2023-05-15T08:50:03.198Z,973.69
2023-05-15T08:51:03.201Z,973.78
2023-05-15T08:52:03.223Z,973.69
2023-05-15T08:53:05.235Z,973.77
2023-05-15T08:54:05.036Z,973.92
2023-05-15T08:55:05.196Z,973.81
2023-05-15T08:56:05.025Z,973.69
2023-05-15T08:57:05.096Z,973.81
2023-05-15T08:59:05.098Z,973.86
2023-05-15T09:00:05.714Z,973.78
2023-05-15T09:02:03.232Z,973.87
2023-05-15T09:03:05.212Z,973.87
2023-05-15T09:04:05.407Z,973.94
2023-05-15T09:05:05.450Z,973.89
2023-05-15T09:06:05.214Z,974.01
2023-05-15T09:07:05.277Z,973.98
2023-05-15T09:08:05.108Z,973.87
2023-05-15T09:09:05.166Z,973.99
2023-05-15T09:10:05.119Z,973.99
2023-05-15T09:12:03.261Z,973.90
2023-05-15T09:13:03.305Z,973.93
2023-05-15T09:14:03.192Z,974.02
2023-05-15T09:15:03.291Z,974.02
2023-05-15T09:16:03.206Z,974.02
2023-05-15T09:17:03.172Z,973.97
2023-05-15T09:18:03.058Z,973.91
2023-05-15T09:19:03.369Z,973.95
2023-05-15T09:20:03.194Z,974.16
2023-05-15T09:21:03.216Z,974.05
2023-05-15T09:22:03.205Z,974.02
2023-05-15T09:23:03.165Z,973.99
2023-05-15T09:24:02.956Z,974.03
2023-05-15T09:25:03.147Z,974.03
2023-05-15T09:26:03.076Z,973.89
2023-05-15T09:27:05.186Z,973.92
2023-05-15T09:28:05.125Z,973.87
2023-05-15T09:30:03.284Z,973.99
2023-05-15T09:31:03.426Z,974.05
2023-05-15T09:32:05.163Z,974.02
2023-05-15T09:33:05.556Z,974.12
2023-05-15T09:35:03.246Z,974.06
2023-05-15T09:36:03.287Z,974.04
2023-05-15T09:37:03.442Z,973.98
2023-05-15T09:38:03.426Z,974.18
2023-05-15T09:39:03.484Z,973.95
2023-05-15T09:40:05.045Z,974.10
2023-05-15T09:41:05.110Z,973.95
2023-05-15T09:42:05.334Z,974.04
2023-05-15T09:43:05.317Z,973.98
2023-05-15T09:44:05.141Z,974.01
2023-05-15T09:45:05.326Z,974.04
2023-05-15T09:46:03.678Z,973.80
2023-05-15T09:47:05.416Z,973.89
2023-05-15T09:48:03.386Z,973.80
2023-05-15T09:49:03.544Z,973.74
2023-05-15T09:50:05.060Z,973.80
2023-05-15T09:51:05.337Z,973.74
2023-05-15T09:52:05.458Z,973.88
2023-05-15T09:53:05.329Z,973.74
2023-05-15T09:55:03.317Z,973.86
2023-05-15T09:56:03.256Z,973.74
2023-05-15T09:57:03.450Z,973.89
2023-05-15T09:58:03.407Z,973.89
2023-05-15T10:00:05.217Z,973.75
2023-05-15T10:01:03.478Z,973.87
2023-05-15T10:02:05.090Z,973.90
2023-05-15T10:03:05.196Z,973.76
2023-05-15T10:04:05.348Z,974.00
2023-05-15T10:05:05.373Z,973.82
2023-05-15T10:06:05.411Z,973.91
2023-05-15T10:07:05.406Z,973.91
2023-05-15T10:08:05.370Z,973.94
2023-05-15T10:09:05.151Z,973.89
2023-05-15T10:11:03.098Z,973.94
2023-05-15T10:12:03.508Z,973.80
2023-05-15T10:13:05.074Z,973.89
2023-05-15T10:14:05.163Z,973.83
2023-05-15T10:15:05.175Z,973.83
2023-05-15T10:16:05.442Z,973.80
2023-05-15T10:17:05.365Z,974.03
2023-05-15T10:18:03.613Z,973.83
2023-05-15T10:19:05.491Z,973.80
2023-05-15T10:20:05.312Z,973.80
2023-05-15T10:21:03.537Z,973.71
2023-05-15T10:22:03.585Z,973.77
2023-05-15T10:23:03.479Z,973.77
2023-05-15T10:24:05.257Z,973.65
2023-05-15T10:25:05.182Z,973.77
2023-05-15T10:26:03.489Z,973.68
2023-05-15T10:27:05.145Z,973.54
2023-05-15T10:29:03.097Z,973.62
2023-05-15T10:30:03.093Z,973.55
2023-05-15T10:31:03.179Z,973.61
2023-05-15T10:32:03.347Z,973.58
2023-05-15T10:33:05.473Z,973.60
2023-05-15T10:34:05.367Z,973.54
2023-05-15T10:36:03.430Z,973.59
2023-05-15T10:37:05.377Z,973.62
2023-05-15T10:38:05.091Z,973.62
2023-05-15T10:39:05.177Z,973.45
2023-05-15T10:40:05.202Z,973.64
2023-05-15T10:41:18.096Z,973.47
2023-05-15T10:43:03.086Z,973.52
2023-05-15T10:44:03.163Z,973.49
2023-05-15T10:45:03.079Z,973.31
2023-05-15T10:46:03.153Z,973.48
2023-05-15T10:47:03.206Z,973.53
2023-05-15T10:48:03.413Z,973.53
2023-05-15T10:49:03.372Z,973.52
2023-05-15T10:50:03.521Z,973.40
2023-05-15T10:51:03.440Z,973.52
2023-05-15T10:52:03.540Z,973.40
2023-05-15T10:53:03.422Z,973.42
2023-05-15T10:54:03.335Z,973.52
2023-05-15T10:55:05.376Z,973.56
2023-05-15T10:56:05.378Z,973.59
2023-05-15T10:57:05.400Z,973.65
2023-05-15T10:58:05.210Z,973.66
2023-05-15T10:59:05.211Z,973.60
2023-05-15T11:00:05.426Z,973.69
2023-05-15T11:02:03.455Z,973.75
2023-05-15T11:03:03.196Z,973.67
2023-05-15T11:04:03.137Z,973.76
2023-05-15T11:05:03.449Z,973.82
2023-05-15T11:06:03.427Z,973.82
2023-05-15T11:07:03.444Z,973.76
2023-05-15T11:08:05.147Z,973.88
2023-05-15T11:09:05.214Z,973.86
2023-05-15T11:10:06.170Z,973.83
2023-05-15T11:11:05.142Z,973.93
2023-05-15T11:12:05.215Z,973.81
2023-05-15T11:14:03.257Z,973.79
2023-05-15T11:15:03.307Z,973.87
2023-05-15T11:16:03.415Z,973.87
2023-05-15T11:17:03.488Z,973.76
2023-05-15T11:18:05.459Z,973.99
2023-05-15T11:19:05.435Z,973.90
2023-05-15T11:20:03.012Z,973.90
2023-05-15T11:21:03.536Z,973.96
2023-05-15T11:22:03.424Z,973.90
2023-05-15T11:23:03.532Z,973.98
2023-05-15T11:24:03.516Z,973.86
2023-05-15T11:25:03.487Z,973.91
2023-05-15T11:26:03.468Z,973.88
2023-05-15T11:27:03.496Z,973.90
2023-05-15T11:28:03.611Z,973.96
2023-05-15T11:29:05.237Z,973.95
2023-05-15T11:30:05.284Z,973.98
2023-05-15T11:31:05.444Z,973.83
2023-05-15T11:32:05.397Z,973.92
2023-05-15T11:33:05.417Z,973.92
2023-05-15T11:34:05.423Z,973.83
2023-05-15T11:35:05.231Z,973.94
2023-05-15T11:36:05.233Z,973.94
2023-05-15T11:37:05.427Z,974.08
2023-05-15T11:38:05.232Z,974.05
2023-05-15T11:39:03.469Z,974.00
2023-05-15T11:40:03.466Z,974.00
2023-05-15T11:41:03.643Z,974.05
2023-05-15T11:42:03.624Z,974.08
2023-05-15T11:44:03.207Z,974.14
2023-05-15T11:45:05.139Z,974.05
2023-05-15T11:46:03.679Z,974.10
2023-05-15T11:47:03.591Z,974.07
2023-05-15T11:48:05.249Z,974.04
2023-05-15T11:50:05.412Z,974.25
2023-05-15T11:51:05.393Z,974.08
2023-05-15T11:52:03.339Z,974.14
2023-05-15T11:53:03.406Z,974.22
2023-05-15T11:54:06.383Z,974.16
2023-05-15T11:55:03.402Z,974.19
2023-05-15T11:56:03.344Z,974.31
2023-05-15T11:57:03.640Z,974.08
2023-05-15T11:58:05.550Z,974.19
2023-05-15T11:59:03.658Z,974.19
2023-05-15T12:00:05.237Z,974.14
2023-05-15T12:01:05.270Z,974.28
2023-05-15T12:02:05.226Z,974.05
2023-05-15T12:03:05.502Z,974.05
2023-05-15T12:05:03.290Z,974.15
2023-05-15T12:06:03.226Z,974.24
2023-05-15T12:07:05.235Z,974.24
2023-05-15T12:08:03.404Z,974.22
2023-05-15T12:09:03.552Z,974.25
2023-05-15T12:10:03.451Z,974.23
2023-05-15T12:11:03.567Z,974.20
2023-05-15T12:12:03.652Z,974.24
2023-05-15T12:13:03.643Z,974.18
2023-05-15T12:14:05.270Z,974.30
2023-05-15T12:16:05.504Z,974.20
2023-05-15T12:17:05.436Z,974.20
2023-05-15T12:18:05.462Z,974.29
2023-05-15T12:19:05.468Z,974.16
2023-05-15T12:20:03.447Z,974.37
2023-05-15T12:21:03.216Z,974.25
2023-05-15T12:23:03.109Z,974.14
2023-05-15T12:24:08.673Z,974.29
2023-05-15T12:25:03.656Z,974.29
2023-05-15T12:26:05.278Z,974.23
2023-05-15T12:27:05.296Z,974.15
2023-05-15T12:29:03.242Z,974.15
2023-05-15T12:30:03.444Z,974.01
2023-05-15T12:31:03.390Z,974.18
2023-05-15T12:33:03.720Z,974.07
2023-05-15T12:35:03.554Z,973.98
2023-05-15T12:36:03.608Z,973.98
2023-05-15T12:37:05.206Z,974.13
2023-05-15T12:39:03.282Z,974.10
2023-05-15T12:40:03.299Z,974.13
2023-05-15T12:41:05.571Z,974.13
2023-05-15T12:42:05.304Z,974.07
2023-05-15T12:43:05.310Z,973.99
2023-05-15T12:45:03.402Z,973.98
2023-05-15T12:46:03.567Z,974.07
2023-05-15T12:47:05.312Z,973.87
2023-05-15T12:48:05.314Z,974.04
2023-05-15T12:50:03.365Z,973.92
2023-05-15T12:51:03.405Z,973.92
2023-05-15T12:52:03.398Z,973.89
2023-05-15T12:53:03.383Z,973.97
2023-05-15T12:54:03.255Z,973.97
2023-05-15T12:55:03.391Z,973.74
2023-05-15T12:56:03.273Z,973.82
2023-05-15T12:57:03.470Z,973.85
2023-05-15T12:58:03.371Z,973.85
2023-05-15T12:59:03.318Z,973.70
2023-05-15T13:00:03.220Z,973.73
2023-05-15T13:01:03.613Z,973.76
2023-05-15T13:02:05.315Z,973.67
2023-05-15T13:04:03.754Z,973.75
2023-05-15T13:05:05.272Z,973.63
2023-05-15T13:07:03.354Z,973.72
2023-05-15T13:08:05.279Z,973.57
2023-05-15T13:09:05.266Z,973.52
2023-05-15T13:11:05.335Z,973.54
2023-05-15T13:13:03.468Z,973.54
2023-05-15T13:14:03.668Z,973.59
2023-05-15T13:15:05.226Z,973.48
2023-05-15T13:16:05.707Z,973.39
2023-05-15T13:18:03.284Z,973.44
2023-05-15T13:19:03.131Z,973.44
2023-05-15T13:20:03.069Z,973.41
2023-05-15T13:21:03.593Z,973.41
2023-05-15T13:22:03.564Z,973.32
2023-05-15T13:23:03.650Z,973.35
2023-05-15T13:24:03.490Z,973.23
2023-05-15T13:25:03.708Z,973.31
2023-05-15T13:26:03.667Z,973.26
2023-05-15T13:27:05.348Z,973.37
2023-05-15T13:29:03.281Z,973.31
2023-05-15T13:30:03.320Z,973.37
2023-05-15T13:31:03.357Z,973.19
2023-05-15T13:32:03.474Z,973.19
2023-05-15T13:33:03.574Z,973.19
2023-05-15T13:34:03.504Z,973.13
2023-05-15T13:35:03.718Z,973.19
2023-05-15T13:36:03.695Z,973.30
2023-05-15T13:37:05.332Z,973.21
2023-05-15T13:39:03.496Z,973.12
2023-05-15T13:40:03.423Z,972.95
2023-05-15T13:42:03.055Z,973.03
2023-05-15T13:43:02.997Z,973.03
2023-05-15T13:44:05.250Z,973.00
2023-05-15T13:45:05.361Z,973.00
2023-05-15T13:47:03.112Z,973.06
2023-05-15T13:48:03.768Z,972.94
2023-05-15T13:49:05.814Z,973.12
2023-05-15T13:50:03.638Z,973.18
2023-05-15T13:51:03.661Z,973.06
2023-05-15T13:52:05.334Z,973.07
2023-05-15T13:53:05.569Z,973.30
2023-05-15T13:54:05.370Z,973.24
2023-05-15T13:56:05.586Z,973.30
2023-05-15T13:58:03.345Z,973.27
2023-05-15T13:59:03.408Z,973.39
2023-05-15T14:00:03.280Z,973.48
2023-05-15T14:01:03.509Z,973.27
2023-05-15T14:02:03.555Z,973.30
2023-05-15T14:03:03.753Z,973.47
2023-05-15T14:05:03.309Z,973.32
2023-05-15T14:06:03.260Z,973.41
2023-05-15T14:07:05.396Z,973.26
2023-05-15T14:08:05.384Z,973.46
2023-05-15T14:09:05.289Z,973.52
2023-05-15T14:10:03.310Z,973.48
2023-05-15T14:11:03.691Z,973.25
2023-05-15T14:12:03.706Z,973.36
2023-05-15T14:13:03.702Z,973.39
2023-05-15T14:14:05.397Z,973.25
2023-05-15T14:16:03.245Z,973.39
2023-05-15T14:17:03.599Z,973.48
2023-05-15T14:18:03.702Z,973.48
2023-05-15T14:19:03.698Z,973.37
2023-05-15T14:21:03.326Z,973.49
2023-05-15T14:22:03.347Z,973.54
2023-05-15T14:23:05.296Z,973.49